O62 weather

CLOSED Carmel Valley Vintage Airfield
Carmel Valley, California, United States

Public forecast

Using degrees Fahrenheit for public forecast. Weather courtesy of forecast.io.

Closest aviation weather report (METAR) to Carmel Valley Vintage Airfield

Closest report is Monterey Peninsula Airport, 8.4 nm (15.5 km) NW. Retrieved 2020/08/07 14:54 UTC (32 minutes ago):

KMRY 071454Z AUTO 24005KT 9SM OVC008 17/12 A2998 RMK AO2 SLP164 T01670122 53010

Closest aviation forecast (TAF) to Carmel Valley Vintage Airfield

Closest forecast is Monterey Peninsula Airport, 8.4 nm (15.5 km) NW. Retrieved 2020/08/07 12:33 UTC (3 hours ago):

TAF KMRY 071130Z 0712/0812 23006KT P6SM OVC010 FM071800 27007KT P6SM BKN012 FM072000 26011KT P6SM SCT014 FM080200 24007KT P6SM OVC011